Dades meteomassalio
Diari Summary for Marc 10, 2018 Units:  Both    English   Metric
« Previous Day
Next Day »
Diari Semanal Mensual Anual Personalitzat
  Maxima: Minima: Mijana:
Temperatura: TemperatureC °F /  -17.8 °C 8.3 °F /  -13.2 °C 13.7 °F /  -10.2 °C
Rosada: DewpointC °F /  -17.8 °C 4.2 °F /  -15.4 °C 8.2 °F /  -13.2 °C
Humitat: Humidity % 44 % 71 %
Velocitat del vent: WindSpeedKMH mph /  0 km/h - 4.4 mph /  7.1 km/h
Racha vent: WindSpeedGustKMH mph /  0 km/h - -
Vent:- - WSW
Pressio: PressurehPa in /  0 hPa 1003.9 in /  33992.1 hPa -
Pluja: 2.3 in /  58.42 mm    
Historical Graphs
 
 
Tabular Data for Marc 10, 2018
Time Temperature Dew Point Pressure Wind Wind Speed Wind Gust Humidity Rainfall Rate (Hourly) solar Conditions
TemperatureC °F /  -17.8 °C DewpointC °F /  -17.8 °C PressurehPa in /  0 hPa Calm     Humidity % HourlyPrecipMM in /  0 mm SolarRadiationWatts/m^2 W/m2 Conditions
00:04 11.1 °F /  -11.6 °C 9.1 °F /  -12.7 °C 1010.4 in /  34212.1 hPa Calm     87 % 0.0 in /  0 mm 0.0 W/m2 RA
00:09 11.1 °F /  -11.6 °C 9.1 °F /  -12.7 °C 1010.4 in /  34212.1 hPa ENE 8.0 mph /  12.9 km/h 8.0 mph /  12.9 km/h 87 % 0.0 in /  0 mm 0.0 W/m2 CLR
00:14 11.1 °F /  -11.6 °C 9.2 °F /  -12.7 °C 1010.4 in /  34212.1 hPa Calm     88 % 0.0 in /  0 mm 0.0 W/m2 CLR
00:19 11.1 °F /  -11.6 °C 9.2 °F /  -12.7 °C 1010.4 in /  34212.1 hPa Calm     88 % 0.0 in /  0 mm 0.0 W/m2 CLR
00:24 10.6 °F /  -11.9 °C 8.8 °F /  -12.9 °C 1010.4 in /  34212.1 hPa Calm     89 % 0.0 in /  0 mm 0.0 W/m2 CLR
00:29 10.6 °F /  -11.9 °C 8.8 °F /  -12.9 °C 1010.4 in /  34212.1 hPa Calm     89 % 0.0 in /  0 mm 0.0 W/m2 CLR
00:34 10.0 °F /  -12.2 °C 8.3 °F /  -13.2 °C 1010.4 in /  34212.1 hPa Calm     89 % 0.0 in /  0 mm 0.0 W/m2 CLR
00:39 10.0 °F /  -12.2 °C 8.3 °F /  -13.2 °C 1010.4 in /  34212.1 hPa East 7.4 mph /  11.9 km/h 7.4 mph /  11.9 km/h 89 % 0.0 in /  0 mm 0.0 W/m2 CLR
00:45 10.6 °F /  -11.9 °C 9.0 °F /  -12.8 °C 1010.4 in /  34212.1 hPa Calm     90 % 0.0 in /  0 mm 0.0 W/m2 CLR
00:50 10.6 °F /  -11.9 °C 9.0 °F /  -12.8 °C 1010.4 in /  34212.1 hPa Calm     90 % 0.0 in /  0 mm 0.0 W/m2 CLR
00:55 10.6 °F /  -11.9 °C 9.0 °F /  -12.8 °C 1010.4 in /  34212.1 hPa Calm     90 % 0.0 in /  0 mm 0.0 W/m2 CLR
01:00 10.6 °F /  -11.9 °C 8.8 °F /  -12.9 °C 1010.4 in /  34212.1 hPa Calm     89 % 0.0 in /  0 mm 0.0 W/m2 CLR
01:05 10.6 °F /  -11.9 °C 8.7 °F /  -12.9 °C 1010.4 in /  34212.1 hPa Calm     88 % 0.0 in /  0 mm 0.0 W/m2 CLR
01:10 10.6 °F /  -11.9 °C 8.7 °F /  -12.9 °C 1010.0 in /  34198.6 hPa Calm     88 % 0.0 in /  0 mm 0.0 W/m2 CLR
01:15 10.6 °F /  -11.9 °C 8.7 °F /  -12.9 °C 1010.0 in /  34198.6 hPa Calm     88 % 0.0 in /  0 mm 0.0 W/m2 CLR
01:20 10.6 °F /  -11.9 °C 8.5 °F /  -13.1 °C 1010.4 in /  34212.1 hPa Calm     87 % 0.0 in /  0 mm 0.0 W/m2 CLR
01:25 10.6 °F /  -11.9 °C 8.3 °F /  -13.2 °C 1010.0 in /  34198.6 hPa Calm     86 % 0.0 in /  0 mm 0.0 W/m2 CLR
01:30 10.6 °F /  -11.9 °C 8.1 °F /  -13.3 °C 1010.0 in /  34198.6 hPa Calm     85 % 0.0 in /  0 mm 0.0 W/m2 CLR
01:35 10.6 °F /  -11.9 °C 7.9 °F /  -13.4 °C 1010.0 in /  34198.6 hPa Calm     84 % 0.0 in /  0 mm 0.0 W/m2 CLR
01:40 10.0 °F /  -12.2 °C 7.2 °F /  -13.8 °C 1010.0 in /  34198.6 hPa Calm     83 % 0.0 in /  0 mm 0.0 W/m2 CLR
01:45 10.6 °F /  -11.9 °C 7.8 °F /  -13.4 °C 1010.0 in /  34198.6 hPa Calm     83 % 0.0 in /  0 mm 0.0 W/m2 CLR
01:50 10.6 °F /  -11.9 °C 7.8 °F /  -13.4 °C 1010.0 in /  34198.6 hPa Calm     83 % 0.0 in /  0 mm 0.0 W/m2 CLR
01:55 10.0 °F /  -12.2 °C 7.2 °F /  -13.8 °C 1010.0 in /  34198.6 hPa Calm     83 % 0.0 in /  0 mm 0.0 W/m2 CLR
02:00 10.0 °F /  -12.2 °C 6.9 °F /  -13.9 °C 1009.7 in /  34188.4 hPa Calm     81 % 0.0 in /  0 mm 0.0 W/m2 CLR
02:05 9.4 °F /  -12.6 °C 6.2 °F /  -14.3 °C 1009.7 in /  34188.4 hPa Calm     80 % 0.0 in /  0 mm 0.0 W/m2 CLR
02:10 9.4 °F /  -12.6 °C 6.2 °F /  -14.3 °C 1009.7 in /  34188.4 hPa Calm     80 % 0.0 in /  0 mm 0.0 W/m2 CLR
02:15 9.4 °F /  -12.6 °C 6.2 °F /  -14.3 °C 1009.7 in /  34188.4 hPa Calm     80 % 0.0 in /  0 mm 0.0 W/m2 CLR
02:20 9.4 °F /  -12.6 °C 6.3 °F /  -14.3 °C 1009.7 in /  34188.4 hPa Calm     81 % 0.0 in /  0 mm 0.0 W/m2 CLR
02:25 9.4 °F /  -12.6 °C 6.5 °F /  -14.2 °C 1009.7 in /  34188.4 hPa Calm     82 % 0.0 in /  0 mm 0.0 W/m2 CLR
02:30 8.9 °F /  -12.8 °C 5.8 °F /  -14.6 °C 1009.7 in /  34188.4 hPa Calm     81 % 0.0 in /  0 mm 0.0 W/m2 CLR
02:35 8.9 °F /  -12.8 °C 5.8 °F /  -14.6 °C 1009.7 in /  34188.4 hPa Calm     81 % 0.0 in /  0 mm 0.0 W/m2 CLR
02:40 8.9 °F /  -12.8 °C 5.6 °F /  -14.7 °C 1009.7 in /  34188.4 hPa West 1.6 mph /  2.6 km/h   80 % 0.0 in /  0 mm 0.0 W/m2 CLR
02:45 8.9 °F /  -12.8 °C 5.4 °F /  -14.8 °C 1009.7 in /  34188.4 hPa Calm     79 % 0.0 in /  0 mm 0.0 W/m2 CLR
02:50 8.9 °F /  -12.8 °C 5.3 °F /  -14.8 °C 1009.7 in /  34188.4 hPa Calm     78 % 0.0 in /  0 mm 0.0 W/m2 CLR
02:55 8.3 °F /  -13.2 °C 4.6 °F /  -15.2 °C 1009.7 in /  34188.4 hPa WSW 5.6 mph /  9 km/h 5.6 mph /  9 km/h 77 % 0.0 in /  0 mm 0.0 W/m2 CLR
03:00 8.3 °F /  -13.2 °C 4.3 °F /  -15.4 °C 1009.7 in /  34188.4 hPa West 1.6 mph /  2.6 km/h 1.6 mph /  2.6 km/h 76 % 0.0 in /  0 mm 0.0 W/m2 CLR
03:05 8.3 °F /  -13.2 °C 4.2 °F /  -15.4 °C 1009.7 in /  34188.4 hPa Calm     75 % 0.0 in /  0 mm 0.0 W/m2 CLR
03:10 8.3 °F /  -13.2 °C 4.2 °F /  -15.4 °C 1009.7 in /  34188.4 hPa Calm     75 % 0.0 in /  0 mm 0.0 W/m2 CLR
03:15 8.9 °F /  -12.8 °C 4.7 °F /  -15.2 °C 1009.7 in /  34188.4 hPa Calm     75 % 0.0 in /  0 mm 0.0 W/m2 CLR
03:20 8.9 °F /  -12.8 °C 5.1 °F /  -14.9 °C 1009.7 in /  34188.4 hPa Calm     77 % 0.0 in /  0 mm 0.0 W/m2 CLR
03:25 8.9 °F /  -12.8 °C 5.3 °F /  -14.8 °C 1009.4 in /  34178.3 hPa Calm     78 % 0.0 in /  0 mm 0.0 W/m2 CLR
03:30 8.9 °F /  -12.8 °C 5.4 °F /  -14.8 °C 1009.4 in /  34178.3 hPa Calm     79 % 0.0 in /  0 mm 0.0 W/m2 CLR
03:35 8.9 °F /  -12.8 °C 5.4 °F /  -14.8 °C 1009.4 in /  34178.3 hPa Calm     79 % 0.0 in /  0 mm 0.0 W/m2 CLR
03:40 9.4 °F /  -12.6 °C 6.2 °F /  -14.3 °C 1009.4 in /  34178.3 hPa Calm     80 % 0.0 in /  0 mm 0.0 W/m2 CLR
03:45 9.4 °F /  -12.6 °C 6.3 °F /  -14.3 °C 1009.4 in /  34178.3 hPa Calm     81 % 0.0 in /  0 mm 0.0 W/m2 CLR
03:50 9.4 °F /  -12.6 °C 6.2 °F /  -14.3 °C 1009.4 in /  34178.3 hPa Calm     80 % 0.0 in /  0 mm 0.0 W/m2 CLR
03:55 9.4 °F /  -12.6 °C 6.0 °F /  -14.4 °C 1009.4 in /  34178.3 hPa Calm     79 % 0.0 in /  0 mm 0.0 W/m2 CLR
04:00 9.4 °F /  -12.6 °C 6.0 °F /  -14.4 °C 1009.4 in /  34178.3 hPa Calm     79 % 0.0 in /  0 mm 0.0 W/m2 CLR
04:05 9.4 °F /  -12.6 °C 6.2 °F /  -14.3 °C 1009.0 in /  34164.7 hPa Calm     80 % 0.0 in /  0 mm 0.0 W/m2 CLR
04:10 9.4 °F /  -12.6 °C 6.3 °F /  -14.3 °C 1009.4 in /  34178.3 hPa Calm     81 % 0.0 in /  0 mm 0.0 W/m2 CLR
04:15 9.4 °F /  -12.6 °C 6.5 °F /  -14.2 °C 1009.4 in /  34178.3 hPa Calm     82 % 0.0 in /  0 mm 0.0 W/m2 CLR
04:20 9.4 °F /  -12.6 °C 6.5 °F /  -14.2 °C 1009.4 in /  34178.3 hPa Calm     82 % 0.0 in /  0 mm 0.0 W/m2 CLR
04:25 9.4 °F /  -12.6 °C 6.7 °F /  -14.1 °C 1009.4 in /  34178.3 hPa Calm     83 % 0.0 in /  0 mm 0.0 W/m2 CLR
04:30 9.4 °F /  -12.6 °C 6.9 °F /  -13.9 °C 1009.4 in /  34178.3 hPa Calm     84 % 0.0 in /  0 mm 0.0 W/m2 CLR
04:35 9.4 °F /  -12.6 °C 6.9 °F /  -13.9 °C 1009.0 in /  34164.7 hPa Calm     84 % 0.0 in /  0 mm 0.0 W/m2 CLR
04:40 9.4 °F /  -12.6 °C 6.7 °F /  -14.1 °C 1009.0 in /  34164.7 hPa Calm     83 % 0.0 in /  0 mm 0.0 W/m2 CLR
04:41 9.4 °F /  -12.6 °C 6.7 °F /  -14.1 °C 1009.0 in /  34164.7 hPa Calm     83 % 0.0 in /  0 mm 0.0 W/m2 CLR
04:46 9.4 °F /  -12.6 °C 6.7 °F /  -14.1 °C 1009.0 in /  34164.7 hPa WSW 4.8 mph /  7.7 km/h 4.8 mph /  7.7 km/h 83 % 0.0 in /  0 mm 0.0 W/m2 CLR
04:51 9.4 °F /  -12.6 °C 6.2 °F /  -14.3 °C 1009.0 in /  34164.7 hPa West 5.6 mph /  9 km/h 5.6 mph /  9 km/h 80 % 0.0 in /  0 mm 0.0 W/m2 CLR
04:56 8.9 °F /  -12.8 °C 5.3 °F /  -14.8 °C 1009.0 in /  34164.7 hPa WNW 9.3 mph /  15 km/h 9.3 mph /  15 km/h 78 % 0.0 in /  0 mm 0.0 W/m2 CLR
05:01 8.9 °F /  -12.8 °C 4.9 °F /  -15.1 °C 1009.0 in /  34164.7 hPa Calm     76 % 0.0 in /  0 mm 0.0 W/m2 CLR
05:06 8.9 °F /  -12.8 °C 5.1 °F /  -14.9 °C 1009.0 in /  34164.7 hPa Calm     77 % 0.0 in /  0 mm 0.0 W/m2 CLR
05:11 8.9 °F /  -12.8 °C 5.4 °F /  -14.8 °C 1008.7 in /  34154.6 hPa Calm     79 % 0.0 in /  0 mm 0.0 W/m2 CLR
05:16 9.4 °F /  -12.6 °C 6.2 °F /  -14.3 °C 1008.7 in /  34154.6 hPa Calm     80 % 0.0 in /  0 mm 0.0 W/m2 CLR
05:21 10.0 °F /  -12.2 °C 6.7 °F /  -14.1 °C 1008.7 in /  34154.6 hPa Calm     80 % 0.0 in /  0 mm 0.0 W/m2 CLR
05:26 10.6 °F /  -11.9 °C 7.4 °F /  -13.7 °C 1008.7 in /  34154.6 hPa Calm     81 % 0.0 in /  0 mm 0.0 W/m2 CLR
05:31 10.6 °F /  -11.9 °C 7.4 °F /  -13.7 °C 1008.7 in /  34154.6 hPa Calm     81 % 0.0 in /  0 mm 0.0 W/m2 CLR
05:36 10.6 °F /  -11.9 °C 7.4 °F /  -13.7 °C 1008.7 in /  34154.6 hPa Calm     81 % 0.0 in /  0 mm 0.0 W/m2 CLR
05:41 10.0 °F /  -12.2 °C 6.7 °F /  -14.1 °C 1008.7 in /  34154.6 hPa Calm   0.2 mph /  0.3 km/h 80 % 0.0 in /  0 mm 0.0 W/m2 CLR
05:46 9.4 °F /  -12.6 °C 6.0 °F /  -14.4 °C 1008.7 in /  34154.6 hPa SW 1.9 mph /  3.1 km/h   79 % 0.0 in /  0 mm 0.0 W/m2 CLR
05:51 8.9 °F /  -12.8 °C 5.1 °F /  -14.9 °C 1008.7 in /  34154.6 hPa Calm     77 % 0.0 in /  0 mm 0.0 W/m2 CLR
05:56 8.3 °F /  -13.2 °C 4.6 °F /  -15.2 °C 1009.0 in /  34164.7 hPa Calm     77 % 0.0 in /  0 mm 0.0 W/m2 CLR
06:01 8.3 °F /  -13.2 °C 4.3 °F /  -15.4 °C 1008.7 in /  34154.6 hPa West 9.3 mph /  15 km/h 9.3 mph /  15 km/h 76 % 0.0 in /  0 mm 0.0 W/m2 CLR
06:06 8.3 °F /  -13.2 °C 4.2 °F /  -15.4 °C 1008.7 in /  34154.6 hPa WSW 11.1 mph /  17.9 km/h 11.1 mph /  17.9 km/h 75 % 0.0 in /  0 mm 0.0 W/m2 CLR
06:11 8.3 °F /  -13.2 °C 4.2 °F /  -15.4 °C 1008.7 in /  34154.6 hPa Calm     75 % 0.0 in /  0 mm 0.0 W/m2 CLR
06:16 8.3 °F /  -13.2 °C 4.3 °F /  -15.4 °C 1008.7 in /  34154.6 hPa Calm     76 % 0.0 in /  0 mm 0.0 W/m2 CLR
06:21 8.9 °F /  -12.8 °C 5.1 °F /  -14.9 °C 1008.7 in /  34154.6 hPa Calm     77 % 0.0 in /  0 mm 0.0 W/m2 CLR
06:26 8.9 °F /  -12.8 °C 5.3 °F /  -14.8 °C 1008.7 in /  34154.6 hPa Calm     78 % 0.0 in /  0 mm 0.0 W/m2 CLR
06:31 8.9 °F /  -12.8 °C 5.4 °F /  -14.8 °C 1008.7 in /  34154.6 hPa Calm     79 % 0.0 in /  0 mm 0.0 W/m2 CLR
06:36 8.9 °F /  -12.8 °C 5.6 °F /  -14.7 °C 1009.0 in /  34164.7 hPa Calm     80 % 0.0 in /  0 mm 0.0 W/m2 CLR
06:41 8.9 °F /  -12.8 °C 5.6 °F /  -14.7 °C 1008.7 in /  34154.6 hPa Calm     80 % 0.0 in /  0 mm 0.0 W/m2 CLR
06:46 8.9 °F /  -12.8 °C 5.6 °F /  -14.7 °C 1008.7 in /  34154.6 hPa Calm     80 % 0.0 in /  0 mm 0.0 W/m2 CLR
06:51 8.9 °F /  -12.8 °C 5.8 °F /  -14.6 °C 1008.7 in /  34154.6 hPa Calm     81 % 0.0 in /  0 mm 0.0 W/m2 CLR
06:56 8.9 °F /  -12.8 °C 5.8 °F /  -14.6 °C 1008.7 in /  34154.6 hPa Calm     81 % 0.0 in /  0 mm 0.0 W/m2 CLR
07:01 8.9 °F /  -12.8 °C 5.8 °F /  -14.6 °C 1008.7 in /  34154.6 hPa Calm     81 % 0.0 in /  0 mm 0.0 W/m2 CLR
07:06 8.9 °F /  -12.8 °C 6.0 °F /  -14.4 °C 1009.0 in /  34164.7 hPa Calm     82 % 0.0 in /  0 mm 0.0 W/m2 CLR
07:11 8.9 °F /  -12.8 °C 6.0 °F /  -14.4 °C 1009.0 in /  34164.7 hPa Calm     82 % 0.0 in /  0 mm 0.0 W/m2 OVC
07:16 8.3 °F /  -13.2 °C 5.4 °F /  -14.8 °C 1009.0 in /  34164.7 hPa Calm     82 % 0.0 in /  0 mm 0.0 W/m2 OVC
07:21 8.3 °F /  -13.2 °C 5.4 °F /  -14.8 °C 1008.7 in /  34154.6 hPa Calm     82 % 0.0 in /  0 mm 0.0 W/m2 OVC
07:26 8.3 °F /  -13.2 °C 5.4 °F /  -14.8 °C 1008.7 in /  34154.6 hPa Calm     82 % 0.0 in /  0 mm 0.0 W/m2 OVC
07:31 8.3 °F /  -13.2 °C 5.4 °F /  -14.8 °C 1008.7 in /  34154.6 hPa Calm     82 % 0.3 in /  7.62 mm 5.0 W/m2 RA
07:36 8.3 °F /  -13.2 °C 5.4 °F /  -14.8 °C 1009.0 in /  34164.7 hPa Calm     82 % 0.3 in /  7.62 mm 5.0 W/m2
07:41 8.9 °F /  -12.8 °C 6.2 °F /  -14.3 °C 1009.0 in /  34164.7 hPa Calm     83 % 0.3 in /  7.62 mm 7.0 W/m2 CLR
07:46 8.9 °F /  -12.8 °C 6.2 °F /  -14.3 °C 1009.0 in /  34164.7 hPa Calm     83 % 0.3 in /  7.62 mm 9.0 W/m2 BKN
07:51 8.9 °F /  -12.8 °C 6.2 °F /  -14.3 °C 1009.0 in /  34164.7 hPa Calm     83 % 0.3 in /  7.62 mm 12.0 W/m2 BKN
07:56 8.9 °F /  -12.8 °C 6.2 °F /  -14.3 °C 1009.0 in /  34164.7 hPa Calm     83 % 0.3 in /  7.62 mm 16.0 W/m2 BKN
08:01 8.9 °F /  -12.8 °C 6.2 °F /  -14.3 °C 1009.0 in /  34164.7 hPa Calm     83 % 0.3 in /  7.62 mm 25.0 W/m2 BKN
08:06 9.4 °F /  -12.6 °C 6.7 °F /  -14.1 °C 1009.0 in /  34164.7 hPa WSW 5.6 mph /  9 km/h 5.6 mph /  9 km/h 83 % 0.3 in /  7.62 mm 33.0 W/m2 BKN
08:11 9.4 °F /  -12.6 °C 6.2 °F /  -14.3 °C 1009.0 in /  34164.7 hPa WSW 11.1 mph /  17.9 km/h 11.1 mph /  17.9 km/h 80 % 0.3 in /  7.62 mm 40.0 W/m2 BKN
08:16 9.4 °F /  -12.6 °C 5.6 °F /  -14.7 °C 1009.0 in /  34164.7 hPa Calm     77 % 0.3 in /  7.62 mm 40.0 W/m2 BKN
08:21 9.4 °F /  -12.6 °C 5.6 °F /  -14.7 °C 1009.0 in /  34164.7 hPa Calm     77 % 0.3 in /  7.62 mm 42.0 W/m2 BKN
08:26 10.0 °F /  -12.2 °C 5.8 °F /  -14.6 °C 1009.0 in /  34164.7 hPa SW 5.6 mph /  9 km/h 5.6 mph /  9 km/h 75 % 0.3 in /  7.62 mm 30.0 W/m2 BKN
08:32 10.6 °F /  -11.9 °C 6.1 °F /  -14.4 °C 1009.0 in /  34164.7 hPa SW 5.6 mph /  9 km/h 5.6 mph /  9 km/h 74 % 0.0 in /  0 mm 33.0 W/m2 BKN
08:37 10.6 °F /  -11.9 °C 6.1 °F /  -14.4 °C 1009.0 in /  34164.7 hPa WSW 5.6 mph /  9 km/h 5.6 mph /  9 km/h 74 % 0.0 in /  0 mm 25.0 W/m2 BKN
08:42 10.6 °F /  -11.9 °C 5.9 °F /  -14.5 °C 1009.0 in /  34164.7 hPa SW 7.4 mph /  11.9 km/h 7.4 mph /  11.9 km/h 73 % 0.0 in /  0 mm 23.0 W/m2 BKN
08:47 11.1 °F /  -11.6 °C 6.4 °F /  -14.2 °C 1009.0 in /  34164.7 hPa West 3.7 mph /  6 km/h 3.7 mph /  6 km/h 73 % 0.0 in /  0 mm 35.0 W/m2 BKN
08:52 11.1 °F /  -11.6 °C 6.3 °F /  -14.3 °C 1009.0 in /  34164.7 hPa Calm     72 % 0.0 in /  0 mm 54.0 W/m2 BKN
08:57 11.1 °F /  -11.6 °C 6.3 °F /  -14.3 °C 1009.0 in /  34164.7 hPa NE 3.7 mph /  6 km/h 3.7 mph /  6 km/h 72 % 0.0 in /  0 mm 72.0 W/m2 SCT
09:02 11.1 °F /  -11.6 °C 6.7 °F /  -14.1 °C 1009.0 in /  34164.7 hPa ENE 5.6 mph /  9 km/h 5.6 mph /  9 km/h 74 % 0.0 in /  0 mm 65.0 W/m2 SCT
09:07 11.7 °F /  -11.3 °C 7.4 °F /  -13.7 °C 1009.0 in /  34164.7 hPa NE 5.6 mph /  9 km/h 5.6 mph /  9 km/h 75 % 0.0 in /  0 mm 72.0 W/m2 FEW
09:12 11.7 °F /  -11.3 °C 7.6 °F /  -13.6 °C 1009.0 in /  34164.7 hPa Calm     76 % 0.0 in /  0 mm 98.0 W/m2 FEW
09:17 11.7 °F /  -11.3 °C 7.6 °F /  -13.6 °C 1009.0 in /  34164.7 hPa NE 4.8 mph /  7.7 km/h 4.8 mph /  7.7 km/h 76 % 0.0 in /  0 mm 102.0 W/m2 CLR
09:22 12.2 °F /  -11 °C 8.1 °F /  -13.3 °C 1009.0 in /  34164.7 hPa Calm     76 % 0.0 in /  0 mm 114.0 W/m2 CLR
09:27 12.2 °F /  -11 °C 8.5 °F /  -13.1 °C 1009.0 in /  34164.7 hPa Calm     78 % 0.0 in /  0 mm 130.0 W/m2 CLR
09:32 12.2 °F /  -11 °C 8.3 °F /  -13.2 °C 1008.7 in /  34154.6 hPa Calm     77 % 0.0 in /  0 mm 153.0 W/m2 CLR
09:37 12.8 °F /  -10.7 °C 8.8 °F /  -12.9 °C 1009.4 in /  34178.3 hPa Calm     77 % 0.0 in /  0 mm 183.0 W/m2 CLR
09:42 12.8 °F /  -10.7 °C 8.7 °F /  -12.9 °C 1009.4 in /  34178.3 hPa Calm     76 % 0.0 in /  0 mm 192.0 W/m2 CLR
09:47 13.3 °F /  -10.4 °C 9.0 °F /  -12.8 °C 1009.7 in /  34188.4 hPa Calm     75 % 0.0 in /  0 mm 271.0 W/m2 CLR
09:52 13.3 °F /  -10.4 °C 9.0 °F /  -12.8 °C 1009.7 in /  34188.4 hPa Calm     75 % 0.0 in /  0 mm 176.0 W/m2 CLR
09:57 13.9 °F /  -10.1 °C 9.3 °F /  -12.6 °C 1009.4 in /  34178.3 hPa Calm     74 % 0.0 in /  0 mm 160.0 W/m2 CLR
10:02 13.9 °F /  -10.1 °C 9.3 °F /  -12.6 °C 1009.7 in /  34188.4 hPa Calm     74 % 0.0 in /  0 mm 160.0 W/m2 CLR
10:07 14.4 °F /  -9.8 °C 9.9 °F /  -12.3 °C 1009.4 in /  34178.3 hPa Calm     74 % 0.0 in /  0 mm 288.0 W/m2 CLR
10:12 15.0 °F /  -9.4 °C 10.4 °F /  -12 °C 1009.4 in /  34178.3 hPa Calm     74 % 0.0 in /  0 mm 153.0 W/m2 CLR
10:17 15.0 °F /  -9.4 °C 10.2 °F /  -12.1 °C 1009.4 in /  34178.3 hPa Calm     73 % 0.0 in /  0 mm 213.0 W/m2 CLR
10:22 15.6 °F /  -9.1 °C 10.7 °F /  -11.8 °C 1009.4 in /  34178.3 hPa Calm     73 % 0.0 in /  0 mm 255.0 W/m2 CLR
10:27 15.6 °F /  -9.1 °C 10.9 °F /  -11.7 °C 1009.4 in /  34178.3 hPa Calm     74 % 0.0 in /  0 mm 283.0 W/m2 CLR
10:32 16.1 °F /  -8.8 °C 11.3 °F /  -11.5 °C 1009.4 in /  34178.3 hPa Calm     73 % 0.0 in /  0 mm 185.0 W/m2 CLR
10:37 16.7 °F /  -8.5 °C 11.2 °F /  -11.6 °C 1009.4 in /  34178.3 hPa Calm     70 % 0.0 in /  0 mm 144.0 W/m2 CLR
10:42 16.7 °F /  -8.5 °C 10.3 °F /  -12.1 °C 1009.4 in /  34178.3 hPa SSW 11.1 mph /  17.9 km/h 11.1 mph /  17.9 km/h 66 % 0.0 in /  0 mm 144.0 W/m2 CLR
10:47 16.7 °F /  -8.5 °C 9.6 °F /  -12.4 °C 1009.4 in /  34178.3 hPa SSW 13.0 mph /  20.9 km/h 13.0 mph /  20.9 km/h 63 % 0.0 in /  0 mm 171.0 W/m2 CLR
10:52 17.2 °F /  -8.2 °C 10.1 °F /  -12.2 °C 1009.4 in /  34178.3 hPa SSW 9.7 mph /  15.6 km/h 9.7 mph /  15.6 km/h 63 % 0.0 in /  0 mm 158.0 W/m2 CLR
10:57 17.2 °F /  -8.2 °C 9.9 °F /  -12.3 °C 1009.4 in /  34178.3 hPa South 5.6 mph /  9 km/h 5.6 mph /  9 km/h 62 % 0.0 in /  0 mm 188.0 W/m2 CLR
11:02 17.8 °F /  -7.9 °C 10.6 °F /  -11.9 °C 1009.0 in /  34164.7 hPa SSW 6.4 mph /  10.3 km/h 6.4 mph /  10.3 km/h 63 % 0.0 in /  0 mm 287.0 W/m2 CLR
11:07 18.3 °F /  -7.6 °C 10.7 °F /  -11.8 °C 1009.0 in /  34164.7 hPa SW 13.0 mph /  20.9 km/h 13.0 mph /  20.9 km/h 61 % 0.0 in /  0 mm 309.0 W/m2 CLR
11:12 18.3 °F /  -7.6 °C 10.4 °F /  -12 °C 1009.0 in /  34164.7 hPa SSW 16.1 mph /  25.9 km/h 16.1 mph /  25.9 km/h 60 % 0.0 in /  0 mm 320.0 W/m2 CLR
11:17 18.9 °F /  -7.3 °C 10.7 °F /  -11.8 °C 1008.7 in /  34154.6 hPa SSW 14.8 mph /  23.8 km/h 14.8 mph /  23.8 km/h 59 % 0.0 in /  0 mm 341.0 W/m2 CLR
11:22 19.4 °F /  -7 °C 10.7 °F /  -11.8 °C 1008.7 in /  34154.6 hPa SSW 13.0 mph /  20.9 km/h 13.0 mph /  20.9 km/h 57 % 0.0 in /  0 mm 390.0 W/m2 CLR
11:27 19.4 °F /  -7 °C 10.2 °F /  -12.1 °C 1008.7 in /  34154.6 hPa SSW 16.7 mph /  26.9 km/h 16.7 mph /  26.9 km/h 55 % 0.0 in /  0 mm 396.0 W/m2 CLR
11:32 20.0 °F /  -6.7 °C 11.2 °F /  -11.6 °C 1008.7 in /  34154.6 hPa SSW 9.3 mph /  15 km/h 9.3 mph /  15 km/h 57 % 0.0 in /  0 mm 385.0 W/m2 CLR
11:37 20.0 °F /  -6.7 °C 10.9 °F /  -11.7 °C 1008.7 in /  34154.6 hPa SW 13.0 mph /  20.9 km/h 13.0 mph /  20.9 km/h 56 % 0.0 in /  0 mm 485.0 W/m2 CLR
11:42 20.6 °F /  -6.3 °C 10.1 °F /  -12.2 °C 1008.7 in /  34154.6 hPa SSW 18.5 mph /  29.8 km/h 18.5 mph /  29.8 km/h 51 % 0.0 in /  0 mm 417.0 W/m2 CLR
11:47 20.6 °F /  -6.3 °C 10.1 °F /  -12.2 °C 1008.4 in /  34144.4 hPa SW 16.7 mph /  26.9 km/h 16.7 mph /  26.9 km/h 51 % 0.0 in /  0 mm 403.0 W/m2 CLR
11:52 20.6 °F /  -6.3 °C 10.1 °F /  -12.2 °C 1008.4 in /  34144.4 hPa SSW 20.4 mph /  32.8 km/h 20.4 mph /  32.8 km/h 51 % 0.0 in /  0 mm 355.0 W/m2 CLR
11:57 20.6 °F /  -6.3 °C 9.8 °F /  -12.3 °C 1008.4 in /  34144.4 hPa SSW 13.0 mph /  20.9 km/h 13.0 mph /  20.9 km/h 50 % 0.0 in /  0 mm 388.0 W/m2 CLR
12:02 21.1 °F /  -6.1 °C 10.6 °F /  -11.9 °C 1008.0 in /  34130.9 hPa SSW 7.4 mph /  11.9 km/h 7.4 mph /  11.9 km/h 51 % 0.0 in /  0 mm 795.0 W/m2 CLR
12:07 22.2 °F /  -5.4 °C 11.3 °F /  -11.5 °C 1008.0 in /  34130.9 hPa SW 6.4 mph /  10.3 km/h 6.4 mph /  10.3 km/h 50 % 0.0 in /  0 mm 765.0 W/m2 CLR
12:12 22.2 °F /  -5.4 °C 10.4 °F /  -12 °C 1008.0 in /  34130.9 hPa South 14.8 mph /  23.8 km/h 14.8 mph /  23.8 km/h 47 % 0.0 in /  0 mm 721.0 W/m2 CLR
12:17 22.2 °F /  -5.4 °C 10.7 °F /  -11.8 °C 1007.7 in /  34120.7 hPa SSW 20.9 mph /  33.6 km/h 20.9 mph /  33.6 km/h 48 % 0.0 in /  0 mm 276.0 W/m2 CLR
12:22 21.7 °F /  -5.7 °C 10.2 °F /  -12.1 °C 1007.7 in /  34120.7 hPa South 8.0 mph /  12.9 km/h 8.0 mph /  12.9 km/h 48 % 0.0 in /  0 mm 807.0 W/m2 CLR
12:27 22.2 °F /  -5.4 °C 10.1 °F /  -12.2 °C 1007.7 in /  34120.7 hPa SW 16.7 mph /  26.9 km/h 16.7 mph /  26.9 km/h 46 % 0.0 in /  0 mm 469.0 W/m2 CLR
12:32 22.2 °F /  -5.4 °C 9.4 °F /  -12.6 °C 1007.7 in /  34120.7 hPa WSW 25.9 mph /  41.7 km/h 25.9 mph /  41.7 km/h 44 % 0.0 in /  0 mm 649.0 W/m2 CLR
12:37 22.2 °F /  -5.4 °C 9.7 °F /  -12.4 °C 1007.7 in /  34120.7 hPa SW 11.1 mph /  17.9 km/h 11.1 mph /  17.9 km/h 45 % 0.0 in /  0 mm 554.0 W/m2 CLR
12:42 22.2 °F /  -5.4 °C 10.1 °F /  -12.2 °C 1007.7 in /  34120.7 hPa WSW 5.6 mph /  9 km/h 5.6 mph /  9 km/h 46 % 0.0 in /  0 mm 269.0 W/m2 CLR
12:47 22.2 °F /  -5.4 °C 10.1 °F /  -12.2 °C 1007.3 in /  34107.2 hPa SSW 11.1 mph /  17.9 km/h 11.1 mph /  17.9 km/h 46 % 0.0 in /  0 mm 206.0 W/m2 CLR
12:52 21.7 °F /  -5.7 °C 9.6 °F /  -12.4 °C 1007.3 in /  34107.2 hPa SW 5.6 mph /  9 km/h 5.6 mph /  9 km/h 46 % 0.0 in /  0 mm 188.0 W/m2 CLR
12:57 21.7 °F /  -5.7 °C 9.6 °F /  -12.4 °C 1007.3 in /  34107.2 hPa Calm     46 % 0.0 in /  0 mm 279.0 W/m2 CLR
13:02 21.7 °F /  -5.7 °C 8.9 °F /  -12.8 °C 1007.0 in /  34097 hPa SSW 5.6 mph /  9 km/h 5.6 mph /  9 km/h 44 % 0.0 in /  0 mm 265.0 W/m2 CLR
13:07 21.7 °F /  -5.7 °C 8.9 °F /  -12.8 °C 1007.0 in /  34097 hPa Calm     44 % 0.0 in /  0 mm 251.0 W/m2 CLR
13:12 21.7 °F /  -5.7 °C 8.9 °F /  -12.8 °C 1007.0 in /  34097 hPa SSW 1.6 mph /  2.6 km/h 1.6 mph /  2.6 km/h 44 % 0.0 in /  0 mm 202.0 W/m2 CLR
13:17 21.7 °F /  -5.7 °C 9.2 °F /  -12.7 °C 1007.0 in /  34097 hPa SSW 5.6 mph /  9 km/h 5.6 mph /  9 km/h 45 % 0.0 in /  0 mm 144.0 W/m2 CLR
13:22 21.7 °F /  -5.7 °C 9.6 °F /  -12.4 °C 1007.0 in /  34097 hPa WSW 22.2 mph /  35.7 km/h 22.2 mph /  35.7 km/h 46 % 0.0 in /  0 mm 144.0 W/m2 CLR
13:27 21.1 °F /  -6.1 °C 9.3 °F /  -12.6 °C 1007.0 in /  34097 hPa SW 31.5 mph /  50.7 km/h 31.5 mph /  50.7 km/h 47 % 0.0 in /  0 mm 116.0 W/m2 CLR
13:32 20.0 °F /  -6.7 °C 8.7 °F /  -12.9 °C 1006.7 in /  34086.9 hPa SSW 5.6 mph /  9 km/h 5.6 mph /  9 km/h 48 % 0.0 in /  0 mm 179.0 W/m2 CLR
13:37 20.0 °F /  -6.7 °C 9.6 °F /  -12.4 °C 1006.7 in /  34086.9 hPa SSW 5.6 mph /  9 km/h 5.6 mph /  9 km/h 51 % 0.0 in /  0 mm 334.0 W/m2 CLR
13:42 20.6 °F /  -6.3 °C 9.8 °F /  -12.3 °C 1006.7 in /  34086.9 hPa West 18.5 mph /  29.8 km/h 18.5 mph /  29.8 km/h 50 % 0.0 in /  0 mm 640.0 W/m2 CLR
13:47 21.1 °F /  -6.1 °C 9.7 °F /  -12.4 °C 1006.3 in /  34073.3 hPa NW 9.3 mph /  15 km/h 9.3 mph /  15 km/h 48 % 0.0 in /  0 mm 232.0 W/m2 CLR
13:52 20.6 °F /  -6.3 °C 9.2 °F /  -12.7 °C 1006.3 in /  34073.3 hPa WNW 5.6 mph /  9 km/h 5.6 mph /  9 km/h 48 % 0.0 in /  0 mm 185.0 W/m2 CLR
13:57 20.6 °F /  -6.3 °C 10.3 °F /  -12.1 °C 1006.3 in /  34073.3 hPa Calm     52 % 0.0 in /  0 mm 141.0 W/m2 CLR
14:02 20.6 °F /  -6.3 °C 11.2 °F /  -11.6 °C 1006.0 in /  34063.2 hPa NW 13.0 mph /  20.9 km/h 13.0 mph /  20.9 km/h 55 % 0.0 in /  0 mm 239.0 W/m2 CLR
14:07 20.6 °F /  -6.3 °C 11.4 °F /  -11.4 °C 1006.0 in /  34063.2 hPa Calm     56 % 0.0 in /  0 mm 352.0 W/m2 CLR
14:12 20.6 °F /  -6.3 °C 12.0 °F /  -11.1 °C 1006.0 in /  34063.2 hPa Calm     58 % 0.0 in /  0 mm 466.0 W/m2 CLR
14:17 21.1 °F /  -6.1 °C 11.4 °F /  -11.4 °C 1005.6 in /  34049.6 hPa Calm     54 % 0.0 in /  0 mm 316.0 W/m2 CLR
14:22 21.1 °F /  -6.1 °C 11.4 °F /  -11.4 °C 1005.6 in /  34049.6 hPa Calm   0.6 mph /  1 km/h 54 % 0.0 in /  0 mm 346.0 W/m2 CLR
14:27 21.1 °F /  -6.1 °C 11.2 °F /  -11.6 °C 1005.6 in /  34049.6 hPa Calm     53 % 0.0 in /  0 mm 450.0 W/m2 CLR
14:32 21.7 °F /  -5.7 °C 11.1 °F /  -11.6 °C 1005.6 in /  34049.6 hPa West 11.1 mph /  17.9 km/h 11.1 mph /  17.9 km/h 51 % 0.0 in /  0 mm 373.0 W/m2 CLR
14:37 21.7 °F /  -5.7 °C 11.1 °F /  -11.6 °C 1005.3 in /  34039.5 hPa WNW 7.4 mph /  11.9 km/h 7.4 mph /  11.9 km/h 51 % 0.0 in /  0 mm 454.0 W/m2 CLR
14:42 21.7 °F /  -5.7 °C 11.1 °F /  -11.6 °C 1005.3 in /  34039.5 hPa NW 5.6 mph /  9 km/h 5.6 mph /  9 km/h 51 % 0.0 in /  0 mm 309.0 W/m2 CLR
14:47 21.7 °F /  -5.7 °C 10.5 °F /  -11.9 °C 1005.3 in /  34039.5 hPa NW 9.3 mph /  15 km/h 9.3 mph /  15 km/h 49 % 0.0 in /  0 mm 262.0 W/m2 CLR
14:52 22.2 °F /  -5.4 °C 11.6 °F /  -11.3 °C 1005.0 in /  34029.3 hPa NW 11.1 mph /  17.9 km/h 11.1 mph /  17.9 km/h 51 % 0.0 in /  0 mm 824.0 W/m2 CLR
14:57 22.2 °F /  -5.4 °C 10.4 °F /  -12 °C 1005.0 in /  34029.3 hPa WNW 3.7 mph /  6 km/h   47 % 0.0 in /  0 mm 863.0 W/m2 CLR
15:02 22.8 °F /  -5.1 °C 10.6 °F /  -11.9 °C 1004.6 in /  34015.8 hPa Calm     46 % 0.0 in /  0 mm 800.0 W/m2 CLR
15:07 22.8 °F /  -5.1 °C 10.6 °F /  -11.9 °C 1004.6 in /  34015.8 hPa North 5.6 mph /  9 km/h   46 % 0.0 in /  0 mm 190.0 W/m2 CLR
15:12 22.2 °F /  -5.4 °C 9.7 °F /  -12.4 °C 1004.6 in /  34015.8 hPa West 4.8 mph /  7.7 km/h 4.8 mph /  7.7 km/h 45 % 0.0 in /  0 mm 142.0 W/m2 CLR
15:17 22.2 °F /  -5.4 °C 9.7 °F /  -12.4 °C 1004.6 in /  34015.8 hPa West 11.1 mph /  17.9 km/h 11.1 mph /  17.9 km/h 45 % 0.0 in /  0 mm 125.0 W/m2 CLR
15:22 21.7 °F /  -5.7 °C 9.2 °F /  -12.7 °C 1004.6 in /  34015.8 hPa Calm     45 % 0.0 in /  0 mm 241.0 W/m2 CLR
15:27 21.7 °F /  -5.7 °C 9.6 °F /  -12.4 °C 1004.6 in /  34015.8 hPa Calm     46 % 0.0 in /  0 mm 209.0 W/m2 CLR
15:32 21.7 °F /  -5.7 °C 9.6 °F /  -12.4 °C 1004.6 in /  34015.8 hPa Calm     46 % 0.0 in /  0 mm 316.0 W/m2 CLR
15:37 22.2 °F /  -5.4 °C 9.7 °F /  -12.4 °C 1004.6 in /  34015.8 hPa South 5.6 mph /  9 km/h   45 % 0.0 in /  0 mm 483.0 W/m2 CLR
15:43 22.8 °F /  -5.1 °C 10.2 °F /  -12.1 °C 1004.3 in /  34005.6 hPa WSW 5.6 mph /  9 km/h 5.6 mph /  9 km/h 45 % 0.0 in /  0 mm 643.0 W/m2 CLR
15:48 22.8 °F /  -5.1 °C 9.9 °F /  -12.3 °C 1004.3 in /  34005.6 hPa SSW 9.3 mph /  15 km/h 9.3 mph /  15 km/h 44 % 0.0 in /  0 mm 561.0 W/m2 CLR
15:53 22.8 °F /  -5.1 °C 9.9 °F /  -12.3 °C 1003.9 in /  33992.1 hPa SW 11.1 mph /  17.9 km/h 11.1 mph /  17.9 km/h 44 % 0.0 in /  0 mm 387.0 W/m2 CLR
15:58 22.8 °F /  -5.1 °C 10.2 °F /  -12.1 °C 1003.9 in /  33992.1 hPa SW 11.1 mph /  17.9 km/h 11.1 mph /  17.9 km/h 45 % 0.0 in /  0 mm 557.0 W/m2 CLR
16:03 22.8 °F /  -5.1 °C 9.9 °F /  -12.3 °C 1003.9 in /  33992.1 hPa SW 11.1 mph /  17.9 km/h 11.1 mph /  17.9 km/h 44 % 0.0 in /  0 mm 149.0 W/m2 CLR
16:08 22.2 °F /  -5.4 °C 9.7 °F /  -12.4 °C 1003.9 in /  33992.1 hPa SW 5.6 mph /  9 km/h 5.6 mph /  9 km/h 45 % 0.0 in /  0 mm 172.0 W/m2 CLR
16:13 22.2 °F /  -5.4 °C 9.4 °F /  -12.6 °C 1003.9 in /  33992.1 hPa WSW 11.1 mph /  17.9 km/h 11.1 mph /  17.9 km/h 44 % 0.0 in /  0 mm 450.0 W/m2 CLR
16:18 22.2 °F /  -5.4 °C 9.7 °F /  -12.4 °C 1003.9 in /  33992.1 hPa WSW 6.4 mph /  10.3 km/h 7.1 mph /  11.4 km/h 45 % 0.0 in /  0 mm 223.0 W/m2 CLR
16:23 22.2 °F /  -5.4 °C 9.4 °F /  -12.6 °C 1003.9 in /  33992.1 hPa WSW 9.3 mph /  15 km/h 9.3 mph /  15 km/h 44 % 0.0 in /  0 mm 227.0 W/m2 CLR
16:28 22.2 °F /  -5.4 °C 9.7 °F /  -12.4 °C 1003.9 in /  33992.1 hPa SSW 14.8 mph /  23.8 km/h 14.8 mph /  23.8 km/h 45 % 0.0 in /  0 mm 171.0 W/m2 CLR
16:33 22.2 °F /  -5.4 °C 10.1 °F /  -12.2 °C 1003.9 in /  33992.1 hPa South 14.8 mph /  23.8 km/h 14.8 mph /  23.8 km/h 46 % 0.0 in /  0 mm 109.0 W/m2 CLR
16:38 21.7 °F /  -5.7 °C 9.6 °F /  -12.4 °C 1003.9 in /  33992.1 hPa SSW 3.7 mph /  6 km/h   46 % 0.0 in /  0 mm 65.0 W/m2 CLR
16:43 21.1 °F /  -6.1 °C 9.3 °F /  -12.6 °C 1003.9 in /  33992.1 hPa SSW 3.2 mph /  5.1 km/h 3.2 mph /  5.1 km/h 47 % 0.0 in /  0 mm 67.0 W/m2 FEW
16:48 21.1 °F /  -6.1 °C 9.3 °F /  -12.6 °C 1003.9 in /  33992.1 hPa SW 5.6 mph /  9 km/h 5.6 mph /  9 km/h 47 % 0.0 in /  0 mm 72.0 W/m2 FEW
16:53 21.1 °F /  -6.1 °C 9.3 °F /  -12.6 °C 1003.9 in /  33992.1 hPa SW 5.6 mph /  9 km/h   47 % 0.0 in /  0 mm 95.0 W/m2 FEW
16:58 21.1 °F /  -6.1 °C 9.3 °F /  -12.6 °C 1004.3 in /  34005.6 hPa West 14.8 mph /  23.8 km/h 14.8 mph /  23.8 km/h 47 % 0.0 in /  0 mm 26.0 W/m2 FEW
17:03 20.6 °F /  -6.3 °C 9.4 °F /  -12.6 °C 1004.6 in /  34015.8 hPa NNE 29.6 mph /  47.6 km/h 29.6 mph /  47.6 km/h 49 % 0.0 in /  0 mm 35.0 W/m2 BKN
17:08 20.0 °F /  -6.7 °C 9.3 °F /  -12.6 °C 1004.6 in /  34015.8 hPa North 46.7 mph /  75.2 km/h 46.7 mph /  75.2 km/h 50 % 0.0 in /  0 mm 49.0 W/m2 BKN
17:13 18.9 °F /  -7.3 °C 9.4 °F /  -12.6 °C 1004.6 in /  34015.8 hPa NNW 42.6 mph /  68.6 km/h 42.6 mph /  68.6 km/h 54 % 0.0 in /  0 mm 37.0 W/m2 BKN
17:18 18.3 °F /  -7.6 °C 9.4 °F /  -12.6 °C 1004.6 in /  34015.8 hPa NNW 25.9 mph /  41.7 km/h 25.9 mph /  41.7 km/h 56 % 0.0 in /  0 mm 35.0 W/m2 BKN
17:23 17.8 °F /  -7.9 °C 9.2 °F /  -12.7 °C 1005.0 in /  34029.3 hPa NNW 27.8 mph /  44.7 km/h 27.8 mph /  44.7 km/h 57 % 0.0 in /  0 mm 21.0 W/m2 BKN
17:28 17.2 °F /  -8.2 °C 8.9 °F /  -12.8 °C 1005.0 in /  34029.3 hPa NNW 25.7 mph /  41.4 km/h 25.7 mph /  41.4 km/h 58 % 0.0 in /  0 mm 12.0 W/m2 BKN
17:33 17.2 °F /  -8.2 °C 9.1 °F /  -12.7 °C 1005.0 in /  34029.3 hPa NNW 22.2 mph /  35.7 km/h 22.2 mph /  35.7 km/h 59 % 0.0 in /  0 mm 14.0 W/m2 BKN
17:38 17.2 °F /  -8.2 °C 9.1 °F /  -12.7 °C 1005.0 in /  34029.3 hPa North 16.7 mph /  26.9 km/h 16.7 mph /  26.9 km/h 59 % 0.0 in /  0 mm 14.0 W/m2 BKN
17:43 16.7 °F /  -8.5 °C 8.6 °F /  -13 °C 1005.3 in /  34039.5 hPa NW 18.5 mph /  29.8 km/h 18.5 mph /  29.8 km/h 59 % 0.0 in /  0 mm 18.0 W/m2 BKN
17:48 16.7 °F /  -8.5 °C 8.6 °F /  -13 °C 1005.3 in /  34039.5 hPa NW 16.7 mph /  26.9 km/h 16.7 mph /  26.9 km/h 59 % 0.0 in /  0 mm 16.0 W/m2 BKN
17:53 16.7 °F /  -8.5 °C 8.9 °F /  -12.8 °C 1005.3 in /  34039.5 hPa WNW 11.1 mph /  17.9 km/h 11.1 mph /  17.9 km/h 60 % 0.0 in /  0 mm 11.0 W/m2 BKN
17:58 16.7 °F /  -8.5 °C 9.3 °F /  -12.6 °C 1005.6 in /  34049.6 hPa Calm     62 % 0.0 in /  0 mm 7.0 W/m2 BKN
18:03 16.1 °F /  -8.8 °C 9.5 °F /  -12.5 °C 1006.0 in /  34063.2 hPa Calm     65 % 0.5 in /  12.7 mm 7.0 W/m2 RA
18:08 16.1 °F /  -8.8 °C 10.4 °F /  -12 °C 1006.0 in /  34063.2 hPa Calm     69 % 1.5 in /  38.1 mm 5.0 W/m2 RA
18:13 15.0 °F /  -9.4 °C 10.2 °F /  -12.1 °C 1006.0 in /  34063.2 hPa Calm     73 % 1.8 in /  45.72 mm 5.0 W/m2 RA
18:14 15.0 °F /  -9.4 °C 10.2 °F /  -12.1 °C 1006.0 in /  34063.2 hPa Calm     73 % 2.0 in /  50.8 mm 5.0 W/m2 RA
18:19 14.4 °F /  -9.8 °C 10.1 °F /  -12.2 °C 1006.0 in /  34063.2 hPa Calm     75 % 2.0 in /  50.8 mm 0.0 W/m2
18:24 13.9 °F /  -10.1 °C 9.9 °F /  -12.3 °C 1006.0 in /  34063.2 hPa Calm     77 % 2.0 in /  50.8 mm 5.0 W/m2 CLR
18:29 13.9 °F /  -10.1 °C 10.3 °F /  -12.1 °C 1006.0 in /  34063.2 hPa Calm     79 % 2.0 in /  50.8 mm 5.0 W/m2 OVC
18:34 13.9 °F /  -10.1 °C 10.3 °F /  -12.1 °C 1006.0 in /  34063.2 hPa Calm     79 % 2.0 in /  50.8 mm 5.0 W/m2 OVC
18:39 13.9 °F /  -10.1 °C 10.5 °F /  -11.9 °C 1006.0 in /  34063.2 hPa Calm     80 % 2.0 in /  50.8 mm 0.0 W/m2 OVC
18:44 13.9 °F /  -10.1 °C 10.5 °F /  -11.9 °C 1005.3 in /  34039.5 hPa SSW 11.1 mph /  17.9 km/h 11.1 mph /  17.9 km/h 80 % 2.0 in /  50.8 mm 0.0 W/m2 OVC
18:49 13.3 °F /  -10.4 °C 9.6 °F /  -12.4 °C 1004.6 in /  34015.8 hPa South 16.7 mph /  26.9 km/h 16.7 mph /  26.9 km/h 78 % 2.0 in /  50.8 mm 23.0 W/m2 BKN
18:54 13.3 °F /  -10.4 °C 10.2 °F /  -12.1 °C 1004.6 in /  34015.8 hPa SSW 14.8 mph /  23.8 km/h 14.8 mph /  23.8 km/h 81 % 2.0 in /  50.8 mm 23.0 W/m2 BKN
18:59 13.3 °F /  -10.4 °C 10.2 °F /  -12.1 °C 1004.3 in /  34005.6 hPa SSW 14.8 mph /  23.8 km/h 14.8 mph /  23.8 km/h 81 % 1.8 in /  45.72 mm 19.0 W/m2 BKN
19:04 13.3 °F /  -10.4 °C 9.9 °F /  -12.3 °C 1004.3 in /  34005.6 hPa WSW 3.7 mph /  6 km/h   80 % 1.5 in /  38.1 mm 7.0 W/m2 OVC
19:09 13.3 °F /  -10.4 °C 10.2 °F /  -12.1 °C 1004.6 in /  34015.8 hPa NNW 7.4 mph /  11.9 km/h 7.4 mph /  11.9 km/h 81 % 0.5 in /  12.7 mm 0.0 W/m2 OVC
19:14 13.3 °F /  -10.4 °C 10.3 °F /  -12.1 °C 1004.3 in /  34005.6 hPa Calm     82 % 0.0 in /  0 mm 0.0 W/m2 CLR
19:19 13.3 °F /  -10.4 °C 10.5 °F /  -11.9 °C 1004.6 in /  34015.8 hPa Calm     83 % 0.0 in /  0 mm 0.0 W/m2 CLR
19:24 13.3 °F /  -10.4 °C 10.7 °F /  -11.8 °C 1004.6 in /  34015.8 hPa NNW 9.3 mph /  15 km/h 9.3 mph /  15 km/h 84 % 0.0 in /  0 mm 0.0 W/m2 CLR
19:29 13.3 °F /  -10.4 °C 10.5 °F /  -11.9 °C 1004.6 in /  34015.8 hPa Calm     83 % 0.0 in /  0 mm 0.0 W/m2 CLR
19:34 12.8 °F /  -10.7 °C 9.9 °F /  -12.3 °C 1005.0 in /  34029.3 hPa Calm     83 % 0.0 in /  0 mm 0.0 W/m2 CLR
19:39 12.8 °F /  -10.7 °C 10.2 °F /  -12.1 °C 1005.0 in /  34029.3 hPa Calm     84 % 0.0 in /  0 mm 0.0 W/m2 CLR
19:44 12.8 °F /  -10.7 °C 10.3 °F /  -12.1 °C 1004.6 in /  34015.8 hPa Calm     85 % 0.0 in /  0 mm 0.0 W/m2 CLR
19:49 12.8 °F /  -10.7 °C 10.5 °F /  -11.9 °C 1005.0 in /  34029.3 hPa Calm     86 % 0.0 in /  0 mm 0.0 W/m2 CLR
19:54 12.2 °F /  -11 °C 9.9 °F /  -12.3 °C 1004.6 in /  34015.8 hPa Calm     86 % 0.0 in /  0 mm 0.0 W/m2 CLR
19:59 12.2 °F /  -11 °C 9.9 °F /  -12.3 °C 1005.0 in /  34029.3 hPa Calm     86 % 0.0 in /  0 mm 0.0 W/m2 CLR
20:04 12.2 °F /  -11 °C 9.9 °F /  -12.3 °C 1005.3 in /  34039.5 hPa Calm     86 % 0.0 in /  0 mm 0.0 W/m2 CLR
20:09 12.2 °F /  -11 °C 10.1 °F /  -12.2 °C 1005.3 in /  34039.5 hPa Calm     87 % 0.0 in /  0 mm 0.0 W/m2 CLR
20:14 12.2 °F /  -11 °C 10.1 °F /  -12.2 °C 1005.3 in /  34039.5 hPa Calm     87 % 0.0 in /  0 mm 0.0 W/m2 CLR
20:19 11.7 °F /  -11.3 °C 9.6 °F /  -12.4 °C 1005.3 in /  34039.5 hPa Calm     87 % 0.0 in /  0 mm 0.0 W/m2 CLR
20:24 12.2 °F /  -11 °C 10.3 °F /  -12.1 °C 1005.0 in /  34029.3 hPa Calm     88 % 0.0 in /  0 mm 0.0 W/m2 CLR
20:29 11.7 °F /  -11.3 °C 9.7 °F /  -12.4 °C 1005.3 in /  34039.5 hPa Calm     88 % 0.0 in /  0 mm 0.0 W/m2 CLR
20:34 12.2 °F /  -11 °C 10.3 °F /  -12.1 °C 1005.3 in /  34039.5 hPa Calm     88 % 0.0 in /  0 mm 0.0 W/m2 CLR
20:39 12.2 °F /  -11 °C 10.3 °F /  -12.1 °C 1005.3 in /  34039.5 hPa Calm     88 % 0.0 in /  0 mm 0.0 W/m2 CLR
20:44 12.2 °F /  -11 °C 10.3 °F /  -12.1 °C 1005.3 in /  34039.5 hPa Calm     88 % 0.0 in /  0 mm 0.0 W/m2 CLR
20:49 12.2 °F /  -11 °C 10.3 °F /  -12.1 °C 1005.6 in /  34049.6 hPa NW 3.7 mph /  6 km/h 3.7 mph /  6 km/h 88 % 0.0 in /  0 mm 0.0 W/m2 CLR
20:54 11.7 °F /  -11.3 °C 9.6 °F /  -12.4 °C 1005.6 in /  34049.6 hPa Calm     87 % 0.0 in /  0 mm 0.0 W/m2 CLR
20:59 11.7 °F /  -11.3 °C 9.6 °F /  -12.4 °C 1005.6 in /  34049.6 hPa Calm     87 % 0.0 in /  0 mm 0.0 W/m2 CLR
21:04 11.7 °F /  -11.3 °C 9.6 °F /  -12.4 °C 1005.6 in /  34049.6 hPa Calm     87 % 0.0 in /  0 mm 0.0 W/m2 CLR
21:09 11.7 °F /  -11.3 °C 9.6 °F /  -12.4 °C 1005.3 in /  34039.5 hPa Calm     87 % 0.0 in /  0 mm 0.0 W/m2 CLR
21:14 11.1 °F /  -11.6 °C 9.2 °F /  -12.7 °C 1005.3 in /  34039.5 hPa Calm     88 % 0.0 in /  0 mm 0.0 W/m2 CLR
21:19 11.1 °F /  -11.6 °C 9.2 °F /  -12.7 °C 1005.6 in /  34049.6 hPa Calm     88 % 0.0 in /  0 mm 0.0 W/m2 CLR
21:24 11.1 °F /  -11.6 °C 9.2 °F /  -12.7 °C 1005.6 in /  34049.6 hPa Calm     88 % 0.0 in /  0 mm 0.0 W/m2 CLR
21:29 11.1 °F /  -11.6 °C 8.5 °F /  -13.1 °C 1005.6 in /  34049.6 hPa NW 7.4 mph /  11.9 km/h 7.4 mph /  11.9 km/h 84 % 0.0 in /  0 mm 0.0 W/m2 CLR
21:34 11.1 °F /  -11.6 °C 6.7 °F /  -14.1 °C 1005.3 in /  34039.5 hPa NW 11.3 mph /  18.2 km/h 11.3 mph /  18.2 km/h 74 % 0.0 in /  0 mm 0.0 W/m2 CLR
21:39 11.1 °F /  -11.6 °C 5.6 °F /  -14.7 °C 1005.0 in /  34029.3 hPa NW 8.0 mph /  12.9 km/h 8.2 mph /  13.2 km/h 69 % 0.0 in /  0 mm 0.0 W/m2 CLR
21:44 10.6 °F /  -11.9 °C 5.7 °F /  -14.6 °C 1005.3 in /  34039.5 hPa NNW 7.4 mph /  11.9 km/h 7.4 mph /  11.9 km/h 72 % 0.0 in /  0 mm 0.0 W/m2 CLR
21:49 10.6 °F /  -11.9 °C 5.1 °F /  -14.9 °C 1005.0 in /  34029.3 hPa NW 7.4 mph /  11.9 km/h 7.4 mph /  11.9 km/h 69 % 0.0 in /  0 mm 0.0 W/m2 CLR
21:54 10.6 °F /  -11.9 °C 5.3 °F /  -14.8 °C 1004.6 in /  34015.8 hPa NNW 9.3 mph /  15 km/h 9.3 mph /  15 km/h 70 % 0.0 in /  0 mm 0.0 W/m2 CLR
21:59 10.6 °F /  -11.9 °C 5.1 °F /  -14.9 °C 1005.0 in /  34029.3 hPa Calm     69 % 0.0 in /  0 mm 0.0 W/m2 CLR
22:04 10.6 °F /  -11.9 °C 6.7 °F /  -14.1 °C 1005.3 in /  34039.5 hPa SSE 5.6 mph /  9 km/h 5.6 mph /  9 km/h 77 % 0.0 in /  0 mm 0.0 W/m2 CLR
22:09 10.6 °F /  -11.9 °C 7.4 °F /  -13.7 °C 1005.3 in /  34039.5 hPa Calm     81 % 0.0 in /  0 mm 0.0 W/m2 CLR
22:14 10.6 °F /  -11.9 °C 7.9 °F /  -13.4 °C 1005.3 in /  34039.5 hPa Calm     84 % 0.0 in /  0 mm 0.0 W/m2 CLR
22:19 10.6 °F /  -11.9 °C 7.9 °F /  -13.4 °C 1005.3 in /  34039.5 hPa Calm     84 % 0.0 in /  0 mm 0.0 W/m2 CLR
22:25 10.6 °F /  -11.9 °C 8.1 °F /  -13.3 °C 1005.6 in /  34049.6 hPa Calm     85 % 0.0 in /  0 mm 0.0 W/m2 CLR
22:30 10.6 °F /  -11.9 °C 8.1 °F /  -13.3 °C 1005.6 in /  34049.6 hPa Calm     85 % 0.0 in /  0 mm 0.0 W/m2 CLR
22:35 10.6 °F /  -11.9 °C 7.9 °F /  -13.4 °C 1005.6 in /  34049.6 hPa Calm     84 % 0.0 in /  0 mm 0.0 W/m2 CLR
22:40 10.6 °F /  -11.9 °C 7.9 °F /  -13.4 °C 1005.6 in /  34049.6 hPa Calm     84 % 0.0 in /  0 mm 0.0 W/m2 CLR
22:45 10.6 °F /  -11.9 °C 7.8 °F /  -13.4 °C 1005.6 in /  34049.6 hPa Calm     83 % 0.0 in /  0 mm 0.0 W/m2 CLR
22:50 10.6 °F /  -11.9 °C 7.8 °F /  -13.4 °C 1005.3 in /  34039.5 hPa Calm     83 % 0.0 in /  0 mm 0.0 W/m2 CLR
22:55 10.6 °F /  -11.9 °C 7.6 °F /  -13.6 °C 1005.3 in /  34039.5 hPa Calm     82 % 0.0 in /  0 mm 0.0 W/m2 CLR
23:00 10.6 °F /  -11.9 °C 6.7 °F /  -14.1 °C 1005.0 in /  34029.3 hPa Calm     77 % 0.0 in /  0 mm 0.0 W/m2 CLR
23:05 10.6 °F /  -11.9 °C 6.9 °F /  -13.9 °C 1005.0 in /  34029.3 hPa North 9.3 mph /  15 km/h 9.3 mph /  15 km/h 78 % 0.0 in /  0 mm 0.0 W/m2 CLR
23:10 10.0 °F /  -12.2 °C 6.5 °F /  -14.2 °C 1005.3 in /  34039.5 hPa NNW 5.6 mph /  9 km/h 5.6 mph /  9 km/h 79 % 0.0 in /  0 mm 0.0 W/m2 CLR
23:15 10.0 °F /  -12.2 °C 6.3 °F /  -14.3 °C 1005.0 in /  34029.3 hPa North 5.6 mph /  9 km/h 5.6 mph /  9 km/h 78 % 0.0 in /  0 mm 0.0 W/m2 CLR
23:20 9.4 °F /  -12.6 °C 5.8 °F /  -14.6 °C 1005.0 in /  34029.3 hPa Calm     78 % 0.0 in /  0 mm 0.0 W/m2 CLR
23:25 9.4 °F /  -12.6 °C 6.2 °F /  -14.3 °C 1005.0 in /  34029.3 hPa Calm     80 % 0.0 in /  0 mm 0.0 W/m2 CLR
23:30 10.0 °F /  -12.2 °C 6.9 °F /  -13.9 °C 1005.3 in /  34039.5 hPa Calm     81 % 0.0 in /  0 mm 0.0 W/m2 CLR
23:35 10.0 °F /  -12.2 °C 7.1 °F /  -13.8 °C 1005.3 in /  34039.5 hPa Calm     82 % 0.0 in /  0 mm 0.0 W/m2 CLR
23:40 9.4 °F /  -12.6 °C 6.5 °F /  -14.2 °C 1005.3 in /  34039.5 hPa Calm     82 % 0.0 in /  0 mm 0.0 W/m2 CLR
23:45 9.4 °F /  -12.6 °C 6.5 °F /  -14.2 °C 1005.3 in /  34039.5 hPa Calm     82 % 0.0 in /  0 mm 0.0 W/m2 CLR
23:50 9.4 °F /  -12.6 °C 6.3 °F /  -14.3 °C 1005.3 in /  34039.5 hPa Calm     81 % 0.0 in /  0 mm 0.0 W/m2 CLR
23:55 9.4 °F /  -12.6 °C 6.3 °F /  -14.3 °C 1005.3 in /  34039.5 hPa Calm     81 % 0.0 in /  0 mm 0.0 W/m2 CLR
Lo Temps de Massalio
Compliments of Weather Underground - 1.25 mb